createdAt,value
2022-09-15T00:03:41.370Z,13.29
2022-09-15T00:08:44.886Z,13.27
2022-09-15T00:13:48.297Z,13.26
2022-09-15T00:18:51.930Z,13.24
2022-09-15T00:23:55.531Z,13.24
2022-09-15T00:29:00.344Z,13.23
2022-09-15T00:34:04.222Z,13.20
2022-09-15T00:39:07.408Z,13.15
2022-09-15T00:44:16.655Z,13.12
2022-09-15T00:49:28.261Z,13.08
2022-09-15T00:54:43.557Z,13.06
2022-09-15T00:59:48.715Z,13.04
2022-09-15T01:04:58.020Z,13.02
2022-09-15T01:10:08.126Z,13.01
2022-09-15T01:15:11.888Z,13.00
2022-09-15T01:20:30.522Z,12.99
2022-09-15T01:26:02.136Z,12.98
2022-09-15T01:31:13.967Z,12.96
2022-09-15T01:36:37.187Z,12.95
2022-09-15T01:41:45.815Z,12.95
2022-09-15T01:46:57.299Z,12.94
2022-09-15T01:52:01.242Z,12.95
2022-09-15T01:57:04.551Z,12.96
2022-09-15T02:02:15.074Z,12.96
2022-09-15T02:07:45.586Z,12.97
2022-09-15T02:12:52.677Z,12.96
2022-09-15T02:17:58.242Z,12.93
2022-09-15T02:23:08.721Z,12.93
2022-09-15T02:28:15.392Z,12.93
2022-09-15T02:33:24.343Z,12.94
2022-09-15T02:38:33.807Z,12.94
2022-09-15T02:43:45.552Z,12.93
2022-09-15T02:48:49.338Z,12.93
2022-09-15T02:53:53.568Z,12.92
2022-09-15T02:58:56.675Z,12.93
2022-09-15T03:03:59.779Z,12.94
2022-09-15T03:09:07.805Z,12.93
2022-09-15T03:14:10.906Z,12.92
2022-09-15T03:19:14.215Z,12.92
2022-09-15T03:24:19.063Z,12.92
2022-09-15T03:29:22.170Z,12.92
2022-09-15T03:34:25.375Z,12.92
2022-09-15T03:39:28.482Z,12.93
2022-09-15T03:44:31.590Z,12.94
2022-09-15T03:49:35.105Z,12.93
2022-09-15T03:54:38.324Z,12.92
2022-09-15T03:59:41.622Z,12.92
2022-09-15T04:04:44.599Z,12.89
2022-09-15T04:09:48.045Z,12.82
2022-09-15T04:14:51.424Z,12.70
2022-09-15T04:19:54.786Z,12.54
2022-09-15T04:24:58.091Z,12.37
2022-09-15T04:30:01.498Z,12.21
2022-09-15T04:35:06.273Z,12.08
2022-09-15T04:40:10.577Z,11.98
2022-09-15T04:45:14.078Z,11.93
2022-09-15T04:50:17.591Z,11.93
2022-09-15T04:55:20.908Z,11.97
2022-09-15T05:00:25.238Z,12.05
2022-09-15T05:05:28.645Z,12.19
2022-09-15T05:10:32.118Z,12.34
2022-09-15T05:15:35.476Z,12.51
2022-09-15T05:20:38.478Z,12.65
2022-09-15T05:25:41.775Z,12.82
2022-09-15T05:30:45.254Z,12.99
2022-09-15T05:35:53.583Z,13.17
2022-09-15T05:41:11.681Z,13.39
2022-09-15T05:46:16.302Z,13.70
2022-09-15T05:51:21.277Z,14.07
2022-09-15T05:56:24.491Z,16.20
2022-09-15T06:01:31.358Z,19.26
2022-09-15T06:06:34.692Z,22.07
2022-09-15T06:11:38.104Z,24.41
2022-09-15T06:16:41.193Z,26.31
2022-09-15T06:21:44.724Z,28.30
2022-09-15T06:26:48.241Z,30.20
2022-09-15T06:31:52.257Z,31.07
2022-09-15T06:36:56.784Z,31.16
2022-09-15T06:42:02.614Z,32.26
2022-09-15T06:47:07.639Z,32.76
2022-09-15T06:52:10.837Z,31.22
2022-09-15T06:57:13.951Z,31.09
2022-09-15T07:02:17.657Z,30.68
2022-09-15T07:07:20.971Z,30.49
2022-09-15T07:12:24.078Z,30.08
2022-09-15T07:17:27.483Z,30.83
2022-09-15T07:22:30.677Z,33.10
2022-09-15T07:27:33.962Z,35.03
2022-09-15T07:32:37.829Z,36.25
2022-09-15T07:37:40.935Z,37.09
2022-09-15T07:42:45.685Z,37.97
2022-09-15T07:47:50.021Z,38.75
2022-09-15T07:52:57.421Z,39.24
2022-09-15T07:58:01.655Z,39.73
2022-09-15T08:03:05.475Z,39.63
2022-09-15T08:08:10.076Z,39.53
2022-09-15T08:13:13.338Z,39.69
2022-09-15T08:18:17.557Z,40.21
2022-09-15T08:23:20.663Z,40.04
2022-09-15T08:28:24.038Z,37.32
2022-09-15T08:33:28.551Z,33.10
2022-09-15T08:38:32.394Z,30.13
2022-09-15T08:43:59.814Z,28.04
2022-09-15T08:49:30.618Z,26.62
2022-09-15T08:54:39.918Z,25.47
2022-09-15T08:59:43.943Z,26.00
2022-09-15T09:05:09.067Z,30.02
2022-09-15T09:10:37.055Z,30.09
2022-09-15T09:15:58.574Z,28.86
2022-09-15T09:21:10.812Z,27.40
2022-09-15T09:26:15.627Z,26.33
2022-09-15T09:31:23.142Z,27.05
2022-09-15T09:36:27.397Z,26.85
2022-09-15T09:41:39.211Z,26.14
2022-09-15T09:46:43.023Z,24.72
2022-09-15T09:51:52.592Z,23.17
2022-09-15T09:57:17.506Z,22.37
2022-09-15T10:02:21.945Z,21.73
2022-09-15T10:07:27.115Z,21.09
2022-09-15T10:12:39.879Z,20.73
2022-09-15T10:17:47.235Z,20.75
2022-09-15T10:22:51.159Z,20.92
2022-09-15T10:28:11.476Z,20.62
2022-09-15T10:33:23.582Z,20.23
2022-09-15T10:38:34.329Z,19.99
2022-09-15T10:44:02.461Z,19.73
2022-09-15T10:49:22.570Z,19.51
2022-09-15T10:55:16.566Z,19.40
2022-09-15T11:00:23.561Z,19.54
2022-09-15T11:05:41.210Z,20.15
2022-09-15T11:11:00.214Z,20.65
2022-09-15T11:16:12.050Z,20.72
2022-09-15T11:21:53.911Z,20.85
2022-09-15T11:27:22.539Z,21.02
2022-09-15T11:32:34.532Z,21.35
2022-09-15T11:37:46.464Z,21.33
2022-09-15T11:42:57.981Z,20.93
2022-09-15T11:48:12.823Z,20.71
2022-09-15T11:53:20.033Z,20.78
2022-09-15T11:58:50.680Z,20.96
2022-09-15T12:04:02.896Z,21.13
2022-09-15T12:09:08.101Z,21.26
2022-09-15T12:14:21.907Z,21.26
2022-09-15T12:19:34.229Z,21.21
2022-09-15T12:24:46.131Z,21.25
2022-09-15T12:29:55.056Z,21.26
2022-09-15T12:35:18.217Z,21.37
2022-09-15T12:40:42.640Z,21.37
2022-09-15T12:45:58.829Z,21.45
2022-09-15T12:51:05.495Z,21.52
2022-09-15T12:56:21.473Z,21.42
2022-09-15T13:01:25.223Z,21.24
2022-09-15T13:06:34.531Z,21.23
2022-09-15T13:11:42.790Z,21.20
2022-09-15T13:16:55.159Z,21.00
2022-09-15T13:22:16.821Z,20.91
2022-09-15T13:27:29.365Z,20.94
2022-09-15T13:32:52.870Z,20.90
2022-09-15T13:38:24.960Z,20.58
2022-09-15T13:43:56.518Z,20.42
2022-09-15T13:49:13.536Z,20.38
2022-09-15T13:54:20.104Z,20.21
2022-09-15T13:59:30.540Z,20.02
2022-09-15T14:04:34.122Z,19.91
2022-09-15T14:09:48.145Z,19.74
2022-09-15T14:14:55.583Z,19.58
2022-09-15T14:20:00.959Z,19.35
2022-09-15T14:25:16.976Z,19.07
2022-09-15T14:30:25.286Z,18.85
2022-09-15T14:35:38.536Z,18.50
2022-09-15T14:40:42.902Z,18.10
2022-09-15T14:46:02.695Z,17.78
2022-09-15T14:51:24.091Z,17.57
2022-09-15T14:56:33.556Z,17.45
2022-09-15T15:01:45.962Z,17.45
2022-09-15T15:07:13.749Z,17.43
2022-09-15T15:12:29.254Z,17.28
2022-09-15T15:17:39.011Z,17.03
2022-09-15T15:22:47.749Z,16.78
2022-09-15T15:27:53.418Z,16.58
2022-09-15T15:33:03.904Z,16.46
2022-09-15T15:38:18.672Z,16.45
2022-09-15T15:43:26.502Z,16.41
2022-09-15T15:48:37.376Z,16.32
2022-09-15T15:53:43.861Z,16.16
2022-09-15T15:58:48.502Z,15.99
2022-09-15T16:03:53.247Z,15.87
2022-09-15T16:08:58.607Z,15.76
2022-09-15T16:14:02.365Z,15.66
2022-09-15T16:19:06.248Z,15.53
2022-09-15T16:24:16.348Z,15.41
2022-09-15T16:29:20.550Z,15.31
2022-09-15T16:34:23.973Z,15.23
2022-09-15T16:39:27.787Z,15.16
2022-09-15T16:44:39.635Z,15.12
2022-09-15T16:49:44.365Z,15.08
2022-09-15T16:54:47.547Z,15.02
2022-09-15T16:59:51.834Z,14.88
2022-09-15T17:04:56.833Z,14.69
2022-09-15T17:10:00.347Z,14.47
2022-09-15T17:15:23.011Z,14.29
2022-09-15T17:20:28.565Z,14.18
2022-09-15T17:25:40.901Z,14.12
2022-09-15T17:30:52.109Z,14.07
2022-09-15T17:36:00.521Z,14.00
2022-09-15T17:41:04.450Z,13.89
2022-09-15T17:46:11.400Z,13.78
2022-09-15T17:51:20.178Z,13.66
2022-09-15T17:56:24.233Z,13.51
2022-09-15T18:01:28.989Z,13.32
2022-09-15T18:06:39.473Z,13.11
2022-09-15T18:11:51.943Z,12.92
2022-09-15T18:16:57.746Z,12.76
2022-09-15T18:22:01.976Z,12.62
2022-09-15T18:27:07.022Z,12.49
2022-09-15T18:32:10.624Z,12.35
2022-09-15T18:37:14.864Z,12.22
2022-09-15T18:42:18.578Z,12.10
2022-09-15T18:47:22.577Z,11.97
2022-09-15T18:52:26.820Z,11.83
2022-09-15T18:57:42.375Z,11.68
2022-09-15T19:02:47.913Z,11.50
2022-09-15T19:07:56.245Z,11.35
2022-09-15T19:13:01.079Z,11.21
2022-09-15T19:18:08.820Z,11.08
2022-09-15T19:23:18.615Z,10.99
2022-09-15T19:28:23.260Z,10.95
2022-09-15T19:33:29.256Z,10.90
2022-09-15T19:38:38.887Z,10.85
2022-09-15T19:43:43.507Z,10.81
2022-09-15T19:48:50.136Z,10.79
2022-09-15T19:53:57.203Z,10.73
2022-09-15T19:59:07.679Z,10.65
2022-09-15T20:04:12.795Z,10.58
2022-09-15T20:09:18.139Z,10.53
2022-09-15T20:14:21.929Z,10.46
2022-09-15T20:19:27.530Z,10.41
2022-09-15T20:24:32.168Z,10.41
2022-09-15T20:29:36.005Z,10.39
2022-09-15T20:34:40.162Z,10.34
2022-09-15T20:39:46.515Z,10.30
2022-09-15T20:44:50.121Z,10.27
2022-09-15T20:49:53.441Z,10.21
2022-09-15T20:54:56.538Z,10.14
2022-09-15T21:00:00.019Z,10.09
2022-09-15T21:05:04.292Z,10.05
2022-09-15T21:10:11.780Z,10.03
2022-09-15T21:15:16.212Z,9.99
2022-09-15T21:20:19.980Z,9.98
2022-09-15T21:25:24.288Z,9.97
2022-09-15T21:30:27.729Z,9.94
2022-09-15T21:35:32.651Z,9.94
2022-09-15T21:40:37.085Z,9.92
2022-09-15T21:45:40.774Z,9.89
2022-09-15T21:50:53.844Z,9.87
2022-09-15T21:56:10.465Z,9.84
2022-09-15T22:01:29.562Z,9.80
2022-09-15T22:06:40.663Z,9.80
2022-09-15T22:11:44.255Z,9.80
2022-09-15T22:16:47.666Z,9.78
2022-09-15T22:21:50.980Z,9.78
2022-09-15T22:26:54.187Z,9.81
2022-09-15T22:31:57.477Z,9.88
2022-09-15T22:37:00.603Z,9.96
2022-09-15T22:42:04.428Z,10.01
2022-09-15T22:47:08.044Z,10.07
2022-09-15T22:52:11.151Z,10.17
2022-09-15T22:57:14.256Z,10.28
2022-09-15T23:02:17.421Z,10.41
2022-09-15T23:07:20.569Z,10.53
2022-09-15T23:12:23.572Z,10.63
2022-09-15T23:17:27.599Z,10.72
2022-09-15T23:22:30.807Z,10.75
2022-09-15T23:27:33.915Z,10.70
2022-09-15T23:32:37.327Z,10.59
2022-09-15T23:37:40.741Z,10.45
2022-09-15T23:42:43.949Z,10.31
2022-09-15T23:47:47.156Z,10.20
2022-09-15T23:52:50.363Z,10.13
2022-09-15T23:57:53.675Z,10.07
